sensor_id;sensor_type;location;lat;lon;timestamp;pressure;altitude;pressure_sealevel;temperature;humidity
61537;BME280;48695;53.480;-6.300;2023-02-02T00:00:52;101804.09;;;10.81;69.36
61537;BME280;48695;53.480;-6.300;2023-02-02T00:03:18;101813.66;;;10.83;69.24
61537;BME280;48695;53.480;-6.300;2023-02-02T00:05:51;101805.81;;;10.82;69.32
61537;BME280;48695;53.480;-6.300;2023-02-02T00:08:18;101810.19;;;10.81;69.30
61537;BME280;48695;53.480;-6.300;2023-02-02T00:10:44;101805.81;;;10.79;69.36
61537;BME280;48695;53.480;-6.300;2023-02-02T00:13:10;101796.25;;;10.79;69.38
61537;BME280;48695;53.480;-6.300;2023-02-02T00:15:36;101806.72;;;10.81;69.49
61537;BME280;48695;53.480;-6.300;2023-02-02T00:18:01;101804.09;;;10.79;69.65
61537;BME280;48695;53.480;-6.300;2023-02-02T00:20:27;101762.44;;;10.53;69.90
61537;BME280;48695;53.480;-6.300;2023-02-02T00:22:54;101811.06;;;10.82;69.99
61537;BME280;48695;53.480;-6.300;2023-02-02T00:25:19;101763.28;;;10.61;70.11
61537;BME280;48695;53.480;-6.300;2023-02-02T00:27:45;101768.38;;;10.78;70.10
61537;BME280;48695;53.480;-6.300;2023-02-02T00:30:10;101798.00;;;10.77;70.03
61537;BME280;48695;53.480;-6.300;2023-02-02T00:32:36;101802.31;;;10.86;70.50
61537;BME280;48695;53.480;-6.300;2023-02-02T00:35:01;101798.84;;;10.84;70.31
61537;BME280;48695;53.480;-6.300;2023-02-02T00:37:27;101823.19;;;10.89;70.29
61537;BME280;48695;53.480;-6.300;2023-02-02T00:39:52;101802.28;;;10.89;70.54
61537;BME280;48695;53.480;-6.300;2023-02-02T00:42:18;101773.63;;;10.77;70.48
61537;BME280;48695;53.480;-6.300;2023-02-02T00:44:43;101806.59;;;10.95;70.41
61537;BME280;48695;53.480;-6.300;2023-02-02T00:47:27;101812.72;;;10.95;70.54
61537;BME280;48695;53.480;-6.300;2023-02-02T00:49:53;101782.22;;;10.96;70.71
61537;BME280;48695;53.480;-6.300;2023-02-02T00:52:18;101768.41;;;10.80;70.63
61537;BME280;48695;53.480;-6.300;2023-02-02T00:54:44;101791.78;;;10.98;70.95
61537;BME280;48695;53.480;-6.300;2023-02-02T00:57:12;101784.78;;;11.02;70.35
61537;BME280;48695;53.480;-6.300;2023-02-02T00:59:39;101784.81;;;11.00;70.81
61537;BME280;48695;53.480;-6.300;2023-02-02T01:02:04;101784.81;;;10.94;70.61
61537;BME280;48695;53.480;-6.300;2023-02-02T01:04:29;101800.50;;;11.00;70.78
61537;BME280;48695;53.480;-6.300;2023-02-02T01:06:55;101789.09;;;11.04;70.58
61537;BME280;48695;53.480;-6.300;2023-02-02T01:09:20;101782.19;;;11.02;70.63
61537;BME280;48695;53.480;-6.300;2023-02-02T01:11:46;101787.41;;;11.02;70.55
61537;BME280;48695;53.480;-6.300;2023-02-02T01:14:11;101758.72;;;10.91;70.95
61537;BME280;48695;53.480;-6.300;2023-02-02T01:16:37;101786.50;;;11.04;70.77
61537;BME280;48695;53.480;-6.300;2023-02-02T01:19:02;101790.81;;;11.10;70.66
61537;BME280;48695;53.480;-6.300;2023-02-02T01:21:27;101781.25;;;11.10;70.79
61537;BME280;48695;53.480;-6.300;2023-02-02T01:23:53;101769.03;;;11.09;70.68
61537;BME280;48695;53.480;-6.300;2023-02-02T01:26:18;101786.44;;;11.13;70.55
61537;BME280;48695;53.480;-6.300;2023-02-02T01:28:44;101773.34;;;11.15;70.92
61537;BME280;48695;53.480;-6.300;2023-02-02T01:31:12;101767.28;;;11.11;70.57
61537;BME280;48695;53.480;-6.300;2023-02-02T01:33:38;101764.66;;;11.16;71.06
61537;BME280;48695;53.480;-6.300;2023-02-02T01:36:06;101775.91;;;11.20;70.71
61537;BME280;48695;53.480;-6.300;2023-02-02T01:38:32;101728.16;;;11.01;70.99
61537;BME280;48695;53.480;-6.300;2023-02-02T01:40:58;101768.09;;;11.18;70.72
61537;BME280;48695;53.480;-6.300;2023-02-02T01:43:29;101775.03;;;11.24;70.74
61537;BME280;48695;53.480;-6.300;2023-02-02T01:45:57;101748.97;;;11.13;70.64
61537;BME280;48695;53.480;-6.300;2023-02-02T01:48:31;101742.88;;;11.12;70.52
61537;BME280;48695;53.480;-6.300;2023-02-02T01:51:01;101761.94;;;11.27;70.94
61537;BME280;48695;53.480;-6.300;2023-02-02T01:53:28;101752.41;;;11.20;71.08
61537;BME280;48695;53.480;-6.300;2023-02-02T01:55:54;101761.06;;;11.26;70.77
61537;BME280;48695;53.480;-6.300;2023-02-02T01:58:30;101763.63;;;11.29;70.90
61537;BME280;48695;53.480;-6.300;2023-02-02T02:00:57;101747.09;;;11.29;71.13
61537;BME280;48695;53.480;-6.300;2023-02-02T02:03:32;101766.25;;;11.32;71.03
61537;BME280;48695;53.480;-6.300;2023-02-02T02:08:39;101750.56;;;11.31;71.37
61537;BME280;48695;53.480;-6.300;2023-02-02T02:11:06;101752.28;;;11.33;71.16
61537;BME280;48695;53.480;-6.300;2023-02-02T02:13:35;101754.03;;;11.36;71.73
61537;BME280;48695;53.480;-6.300;2023-02-02T02:37:15;101726.91;;;11.43;71.23
61537;BME280;48695;53.480;-6.300;2023-02-02T02:39:50;101729.56;;;11.41;71.19
61537;BME280;48695;53.480;-6.300;2023-02-02T02:42:21;101716.59;;;11.31;71.29
61537;BME280;48695;53.480;-6.300;2023-02-02T02:44:49;101729.59;;;11.37;71.17
61537;BME280;48695;53.480;-6.300;2023-02-02T02:47:16;101723.50;;;11.35;71.69
61537;BME280;48695;53.480;-6.300;2023-02-02T02:49:47;101722.63;;;11.36;71.60
61537;BME280;48695;53.480;-6.300;2023-02-02T02:52:13;101721.84;;;11.28;71.33
61537;BME280;48695;53.480;-6.300;2023-02-02T02:54:43;101739.19;;;11.35;71.59
61537;BME280;48695;53.480;-6.300;2023-02-02T03:10:39;101727.81;;;11.40;71.89
61537;BME280;48695;53.480;-6.300;2023-02-02T03:13:08;101739.94;;;11.48;71.97
61537;BME280;48695;53.480;-6.300;2023-02-02T03:15:35;101711.28;;;11.37;72.04
61537;BME280;48695;53.480;-6.300;2023-02-02T03:18:00;101732.06;;;11.52;71.84
61537;BME280;48695;53.480;-6.300;2023-02-02T03:20:26;101731.16;;;11.53;71.88
61537;BME280;48695;53.480;-6.300;2023-02-02T03:22:51;101724.25;;;11.51;71.58
61537;BME280;48695;53.480;-6.300;2023-02-02T03:25:16;101727.72;;;11.51;71.70
61537;BME280;48695;53.480;-6.300;2023-02-02T03:27:43;101714.66;;;11.48;71.85
61537;BME280;48695;53.480;-6.300;2023-02-02T03:30:11;101722.38;;;11.59;71.66
61537;BME280;48695;53.480;-6.300;2023-02-02T03:32:37;101718.94;;;11.54;71.73
61537;BME280;48695;53.480;-6.300;2023-02-02T03:35:03;101719.88;;;11.51;72.11
61537;BME280;48695;53.480;-6.300;2023-02-02T03:37:29;101731.13;;;11.58;71.98
61537;BME280;48695;53.480;-6.300;2023-02-02T03:39:54;101725.88;;;11.59;72.35
61537;BME280;48695;53.480;-6.300;2023-02-02T03:42:19;101721.53;;;11.58;72.17
61537;BME280;48695;53.480;-6.300;2023-02-02T03:44:45;101716.31;;;11.55;72.09
61537;BME280;48695;53.480;-6.300;2023-02-02T03:47:10;101721.53;;;11.55;72.23
61537;BME280;48695;53.480;-6.300;2023-02-02T03:49:35;101726.78;;;11.55;72.23
61537;BME280;48695;53.480;-6.300;2023-02-02T03:52:01;101730.28;;;11.54;71.95
61537;BME280;48695;53.480;-6.300;2023-02-02T03:54:28;101727.66;;;11.54;71.49
61537;BME280;48695;53.480;-6.300;2023-02-02T03:56:54;101728.56;;;11.50;71.84
61537;BME280;48695;53.480;-6.300;2023-02-02T03:59:19;101706.06;;;11.34;72.29
61537;BME280;48695;53.480;-6.300;2023-02-02T04:01:45;101727.81;;;11.40;72.28
61537;BME280;48695;53.480;-6.300;2023-02-02T04:04:10;101740.00;;;11.43;72.13
61537;BME280;48695;53.480;-6.300;2023-02-02T04:06:35;101731.34;;;11.36;72.78
61537;BME280;48695;53.480;-6.300;2023-02-02T04:09:01;101738.28;;;11.39;72.61
61537;BME280;48695;53.480;-6.300;2023-02-02T04:11:26;101731.31;;;11.38;72.71
61537;BME280;48695;53.480;-6.300;2023-02-02T04:13:52;101720.94;;;11.32;72.56
61537;BME280;48695;53.480;-6.300;2023-02-02T04:16:17;101723.50;;;11.35;73.02
61537;BME280;48695;53.480;-6.300;2023-02-02T04:18:43;101722.63;;;11.37;73.12
61537;BME280;48695;53.480;-6.300;2023-02-02T04:21:08;101732.22;;;11.37;72.89
61537;BME280;48695;53.480;-6.300;2023-02-02T04:23:34;101721.69;;;11.40;72.67
61537;BME280;48695;53.480;-6.300;2023-02-02T04:26:00;101703.56;;;11.26;72.74
61537;BME280;48695;53.480;-6.300;2023-02-02T04:28:26;101708.72;;;11.32;72.69
61537;BME280;48695;53.480;-6.300;2023-02-02T04:30:53;101724.31;;;11.43;72.81
61537;BME280;48695;53.480;-6.300;2023-02-02T04:33:19;101726.06;;;11.41;72.81
61537;BME280;48695;53.480;-6.300;2023-02-02T04:35:45;101721.69;;;11.43;72.98
61537;BME280;48695;53.480;-6.300;2023-02-02T04:38:10;101693.91;;;11.30;72.47
61537;BME280;48695;53.480;-6.300;2023-02-02T04:40:40;101719.03;;;11.48;73.03
61537;BME280;48695;53.480;-6.300;2023-02-02T04:43:05;101659.25;;;11.09;72.94
61537;BME280;48695;53.480;-6.300;2023-02-02T04:45:31;101718.25;;;11.38;72.58
61537;BME280;48695;53.480;-6.300;2023-02-02T04:47:56;101711.31;;;11.34;72.97
61537;BME280;48695;53.480;-6.300;2023-02-02T04:50:22;101712.94;;;11.44;72.65
61537;BME280;48695;53.480;-6.300;2023-02-02T04:52:47;101722.53;;;11.47;72.91
61537;BME280;48695;53.480;-6.300;2023-02-02T04:55:13;101739.91;;;11.52;72.60
61537;BME280;48695;53.480;-6.300;2023-02-02T04:57:38;101730.31;;;11.53;72.91
61537;BME280;48695;53.480;-6.300;2023-02-02T05:00:04;101745.13;;;11.54;72.63
61537;BME280;48695;53.480;-6.300;2023-02-02T05:02:30;101736.50;;;11.46;72.89
61537;BME280;48695;53.480;-6.300;2023-02-02T05:04:55;101751.22;;;11.54;73.01
61537;BME280;48695;53.480;-6.300;2023-02-02T05:07:21;101746.84;;;11.56;72.48
61537;BME280;48695;53.480;-6.300;2023-02-02T05:09:46;101742.44;;;11.58;72.83
61537;BME280;48695;53.480;-6.300;2023-02-02T05:12:12;101748.56;;;11.59;72.90
61537;BME280;48695;53.480;-6.300;2023-02-02T05:14:37;101751.13;;;11.63;72.40
61537;BME280;48695;53.480;-6.300;2023-02-02T05:17:02;101749.41;;;11.62;72.75
61537;BME280;48695;53.480;-6.300;2023-02-02T05:19:28;101750.28;;;11.61;72.76
61537;BME280;48695;53.480;-6.300;2023-02-02T05:21:53;101742.44;;;11.60;72.99
61537;BME280;48695;53.480;-6.300;2023-02-02T05:24:19;101745.97;;;11.57;72.46
61537;BME280;48695;53.480;-6.300;2023-02-02T05:26:45;101745.97;;;11.57;72.64
61537;BME280;48695;53.480;-6.300;2023-02-02T05:29:10;101734.63;;;11.55;73.01
61537;BME280;48695;53.480;-6.300;2023-02-02T05:31:36;101729.44;;;11.52;72.44
61537;BME280;48695;53.480;-6.300;2023-02-02T05:34:01;101718.09;;;11.50;72.79
61537;BME280;48695;53.480;-6.300;2023-02-02T05:36:27;101726.84;;;11.49;72.67
61537;BME280;48695;53.480;-6.300;2023-02-02T05:38:52;101733.00;;;11.47;72.97
61537;BME280;48695;53.480;-6.300;2023-02-02T05:41:18;101718.22;;;11.41;72.65
61537;BME280;48695;53.480;-6.300;2023-02-02T05:43:43;101730.41;;;11.42;73.25
61537;BME280;48695;53.480;-6.300;2023-02-02T05:46:09;101721.72;;;11.38;72.81
61537;BME280;48695;53.480;-6.300;2023-02-02T05:48:35;101729.53;;;11.43;72.95
61537;BME280;48695;53.480;-6.300;2023-02-02T05:51:10;101719.97;;;11.42;73.05
61537;BME280;48695;53.480;-6.300;2023-02-02T05:53:36;101731.31;;;11.41;73.10
61537;BME280;48695;53.480;-6.300;2023-02-02T05:56:02;101720.84;;;11.41;72.88
61537;BME280;48695;53.480;-6.300;2023-02-02T05:58:27;101720.03;;;11.36;73.26
61537;BME280;48695;53.480;-6.300;2023-02-02T06:00:53;101720.84;;;11.41;73.16
61537;BME280;48695;53.480;-6.300;2023-02-02T06:03:19;101702.63;;;11.30;72.79
61537;BME280;48695;53.480;-6.300;2023-02-02T06:05:44;101725.19;;;11.42;73.21
61537;BME280;48695;53.480;-6.300;2023-02-02T06:08:10;101704.38;;;11.31;72.94
61537;BME280;48695;53.480;-6.300;2023-02-02T06:10:38;101719.94;;;11.43;72.97
61537;BME280;48695;53.480;-6.300;2023-02-02T06:13:04;101726.13;;;11.33;73.24
61537;BME280;48695;53.480;-6.300;2023-02-02T06:15:30;101728.69;;;11.41;73.32
61537;BME280;48695;53.480;-6.300;2023-02-02T06:17:57;101726.94;;;11.40;72.88
61537;BME280;48695;53.480;-6.300;2023-02-02T06:20:22;101695.69;;;11.25;73.04
61537;BME280;48695;53.480;-6.300;2023-02-02T06:22:48;101723.56;;;11.29;73.72
61537;BME280;48695;53.480;-6.300;2023-02-02T06:25:13;101726.16;;;11.32;73.44
61537;BME280;48695;53.480;-6.300;2023-02-02T06:27:39;101732.25;;;11.32;73.28
61537;BME280;48695;53.480;-6.300;2023-02-02T06:30:04;101714.03;;;11.20;73.58
61537;BME280;48695;53.480;-6.300;2023-02-02T06:32:30;101734.00;;;11.29;73.34
61537;BME280;48695;53.480;-6.300;2023-02-02T06:34:55;101716.63;;;11.25;73.64
61537;BME280;48695;53.480;-6.300;2023-02-02T06:37:21;101734.03;;;11.27;73.69
61537;BME280;48695;53.480;-6.300;2023-02-02T06:39:46;101721.84;;;11.25;73.86
61537;BME280;48695;53.480;-6.300;2023-02-02T06:42:12;101721.84;;;11.25;73.48
61537;BME280;48695;53.480;-6.300;2023-02-02T06:44:37;101714.88;;;11.24;73.75
61537;BME280;48695;53.480;-6.300;2023-02-02T06:47:02;101710.53;;;11.24;73.44
61537;BME280;48695;53.480;-6.300;2023-02-02T06:49:28;101707.19;;;11.08;73.43
61537;BME280;48695;53.480;-6.300;2023-02-02T06:51:53;101727.97;;;11.22;73.49
61537;BME280;48695;53.480;-6.300;2023-02-02T06:54:19;101714.94;;;11.21;73.35
61537;BME280;48695;53.480;-6.300;2023-02-02T06:56:44;101718.47;;;11.13;73.64
61537;BME280;48695;53.480;-6.300;2023-02-02T06:59:09;101721.94;;;11.15;73.01
61537;BME280;48695;53.480;-6.300;2023-02-02T07:01:35;101747.22;;;11.16;73.52
61537;BME280;48695;53.480;-6.300;2023-02-02T07:04:00;101748.97;;;11.16;73.14
61537;BME280;48695;53.480;-6.300;2023-02-02T07:06:27;101746.34;;;11.14;73.67
61537;BME280;48695;53.480;-6.300;2023-02-02T07:08:53;101743.72;;;11.14;73.63
61537;BME280;48695;53.480;-6.300;2023-02-02T07:11:20;101744.59;;;11.13;73.42
61537;BME280;48695;53.480;-6.300;2023-02-02T07:13:47;101735.88;;;11.14;73.30
61537;BME280;48695;53.480;-6.300;2023-02-02T07:16:14;101735.88;;;11.14;73.38
61537;BME280;48695;53.480;-6.300;2023-02-02T07:18:40;101749.81;;;11.16;73.41
61537;BME280;48695;53.480;-6.300;2023-02-02T07:21:08;101745.47;;;11.17;73.19
61537;BME280;48695;53.480;-6.300;2023-02-02T07:23:34;101728.97;;;11.10;73.15
61537;BME280;48695;53.480;-6.300;2023-02-02T07:26:04;101734.09;;;11.20;73.21
61537;BME280;48695;53.480;-6.300;2023-02-02T07:28:29;101747.22;;;11.16;73.19
61537;BME280;48695;53.480;-6.300;2023-02-02T07:30:55;101741.09;;;11.17;73.08
61537;BME280;48695;53.480;-6.300;2023-02-02T07:33:20;101726.28;;;11.16;72.97
61537;BME280;48695;53.480;-6.300;2023-02-02T07:35:46;101728.88;;;11.20;72.98
61537;BME280;48695;53.480;-6.300;2023-02-02T07:38:11;101730.63;;;11.17;72.51
61537;BME280;48695;53.480;-6.300;2023-02-02T07:40:36;101735.88;;;11.17;72.52
61537;BME280;48695;53.480;-6.300;2023-02-02T07:43:02;101740.19;;;11.20;72.38
61537;BME280;48695;53.480;-6.300;2023-02-02T07:45:28;101728.06;;;11.13;72.50
61537;BME280;48695;53.480;-6.300;2023-02-02T07:47:57;101737.63;;;11.15;72.72
61537;BME280;48695;53.480;-6.300;2023-02-02T07:50:23;101737.59;;;11.18;72.76
61537;BME280;48695;53.480;-6.300;2023-02-02T07:52:50;101720.16;;;11.21;72.74
61537;BME280;48695;53.480;-6.300;2023-02-02T07:55:15;101735.84;;;11.21;72.52
61537;BME280;48695;53.480;-6.300;2023-02-02T07:57:41;101704.53;;;11.10;72.41
61537;BME280;48695;53.480;-6.300;2023-02-02T08:00:07;101741.94;;;11.21;72.53
61537;BME280;48695;53.480;-6.300;2023-02-02T08:02:33;101718.41;;;11.20;72.23
61537;BME280;48695;53.480;-6.300;2023-02-02T08:04:59;101721.94;;;11.15;72.48
61537;BME280;48695;53.480;-6.300;2023-02-02T08:07:24;101721.94;;;11.15;72.64
61537;BME280;48695;53.480;-6.300;2023-02-02T08:09:50;101728.06;;;11.10;72.29
61537;BME280;48695;53.480;-6.300;2023-02-02T08:12:16;101705.53;;;10.98;72.51
61537;BME280;48695;53.480;-6.300;2023-02-02T08:14:41;101711.63;;;11.00;72.35
61537;BME280;48695;53.480;-6.300;2023-02-02T08:17:07;101723.75;;;11.07;72.63
61537;BME280;48695;53.480;-6.300;2023-02-02T08:19:32;101729.84;;;11.08;72.85
61537;BME280;48695;53.480;-6.300;2023-02-02T08:21:58;101725.53;;;11.05;72.84
61537;BME280;48695;53.480;-6.300;2023-02-02T08:24:23;101734.22;;;11.07;72.57
61537;BME280;48695;53.480;-6.300;2023-02-02T08:26:49;101728.97;;;11.07;72.41
61537;BME280;48695;53.480;-6.300;2023-02-02T08:29:14;101741.16;;;11.08;72.65
61537;BME280;48695;53.480;-6.300;2023-02-02T08:31:42;101724.59;;;11.09;72.46
61537;BME280;48695;53.480;-6.300;2023-02-02T08:34:09;101737.72;;;11.06;72.33
61537;BME280;48695;53.480;-6.300;2023-02-02T08:36:35;101728.97;;;11.09;72.50
61537;BME280;48695;53.480;-6.300;2023-02-02T08:39:03;101738.53;;;11.11;72.85
61537;BME280;48695;53.480;-6.300;2023-02-02T08:41:30;101728.97;;;11.10;72.85
61537;BME280;48695;53.480;-6.300;2023-02-02T08:43:55;101730.66;;;11.14;72.35
61537;BME280;48695;53.480;-6.300;2023-02-02T08:46:21;101742.81;;;11.18;72.30
61537;BME280;48695;53.480;-6.300;2023-02-02T08:48:47;101746.31;;;11.21;72.40
61537;BME280;48695;53.480;-6.300;2023-02-02T08:51:15;101732.31;;;11.25;72.15
61537;BME280;48695;53.480;-6.300;2023-02-02T08:53:41;101740.16;;;11.26;72.09
61537;BME280;48695;53.480;-6.300;2023-02-02T08:56:13;101731.41;;;11.29;72.07
61537;BME280;48695;53.480;-6.300;2023-02-02T08:58:39;101702.75;;;11.16;71.79
61537;BME280;48695;53.480;-6.300;2023-02-02T09:01:18;101725.25;;;11.36;71.84
61537;BME280;48695;53.480;-6.300;2023-02-02T09:03:44;101725.25;;;11.36;71.57
61537;BME280;48695;53.480;-6.300;2023-02-02T09:06:12;101735.66;;;11.42;71.41
61537;BME280;48695;53.480;-6.300;2023-02-02T09:08:39;101737.47;;;11.35;71.13
61537;BME280;48695;53.480;-6.300;2023-02-02T09:11:13;101732.06;;;11.49;70.74
61537;BME280;48695;53.480;-6.300;2023-02-02T09:13:40;101732.97;;;11.48;70.50
61537;BME280;48695;53.480;-6.300;2023-02-02T09:16:09;101705.19;;;11.35;70.83
61537;BME280;48695;53.480;-6.300;2023-02-02T09:18:35;101739.00;;;11.56;70.61
61537;BME280;48695;53.480;-6.300;2023-02-02T09:21:04;101727.59;;;11.60;70.56
61537;BME280;48695;53.480;-6.300;2023-02-02T09:23:33;101737.19;;;11.60;70.37
61537;BME280;48695;53.480;-6.300;2023-02-02T09:26:09;101744.09;;;11.65;70.52
61537;BME280;48695;53.480;-6.300;2023-02-02T09:28:36;101744.13;;;11.67;70.20
61537;BME280;48695;53.480;-6.300;2023-02-02T09:31:01;101727.66;;;11.54;70.05
61537;BME280;48695;53.480;-6.300;2023-02-02T09:33:27;101755.50;;;11.60;70.25
61537;BME280;48695;53.480;-6.300;2023-02-02T09:35:52;101753.69;;;11.71;70.07
61537;BME280;48695;53.480;-6.300;2023-02-02T09:38:17;101758.00;;;11.74;70.09
61537;BME280;48695;53.480;-6.300;2023-02-02T09:40:43;101737.91;;;11.74;70.24
61537;BME280;48695;53.480;-6.300;2023-02-02T09:43:54;101759.69;;;11.82;70.24
61537;BME280;48695;53.480;-6.300;2023-02-02T09:49:25;101771.91;;;11.82;69.83
61537;BME280;48695;53.480;-6.300;2023-02-02T09:51:57;101764.00;;;11.86;69.47
61537;BME280;48695;53.480;-6.300;2023-02-02T09:54:47;101784.00;;;11.90;69.31
61537;BME280;48695;53.480;-6.300;2023-02-02T09:57:21;101777.03;;;11.91;69.44
61537;BME280;48695;53.480;-6.300;2023-02-02T09:59:50;101780.50;;;11.93;69.72
61537;BME280;48695;53.480;-6.300;2023-02-02T10:02:41;101793.53;;;11.96;69.81
61537;BME280;48695;53.480;-6.300;2023-02-02T10:05:18;101792.69;;;11.97;69.82
61537;BME280;48695;53.480;-6.300;2023-02-02T10:07:50;101785.63;;;12.01;69.22
61537;BME280;48695;53.480;-6.300;2023-02-02T10:10:31;101784.75;;;12.03;69.66
61537;BME280;48695;53.480;-6.300;2023-02-02T10:16:06;101786.44;;;12.09;69.33
61537;BME280;48695;53.480;-6.300;2023-02-02T10:19:05;101789.88;;;12.14;69.35
61537;BME280;48695;53.480;-6.300;2023-02-02T10:21:59;101800.34;;;12.11;69.16
61537;BME280;48695;53.480;-6.300;2023-02-02T10:24:29;101807.31;;;12.15;68.92
61537;BME280;48695;53.480;-6.300;2023-02-02T10:26:58;101792.53;;;12.09;68.91
61537;BME280;48695;53.480;-6.300;2023-02-02T10:29:54;101794.06;;;12.26;68.73
61537;BME280;48695;53.480;-6.300;2023-02-02T10:32:22;101796.69;;;12.27;68.62
61537;BME280;48695;53.480;-6.300;2023-02-02T10:40:25;101816.63;;;12.39;68.23
61537;BME280;48695;53.480;-6.300;2023-02-02T10:48:44;101788.84;;;12.26;68.32
61537;BME280;48695;53.480;-6.300;2023-02-02T10:51:17;101813.13;;;12.40;68.73
61537;BME280;48695;53.480;-6.300;2023-02-02T10:53:49;101811.34;;;12.40;68.85
61537;BME280;48695;53.480;-6.300;2023-02-02T10:56:17;101809.59;;;12.41;68.35
61537;BME280;48695;53.480;-6.300;2023-02-02T10:59:06;101818.31;;;12.44;68.65
61537;BME280;48695;53.480;-6.300;2023-02-02T11:01:31;101809.56;;;12.47;68.14
61537;BME280;48695;53.480;-6.300;2023-02-02T11:03:57;101821.75;;;12.48;68.19
61537;BME280;48695;53.480;-6.300;2023-02-02T11:06:41;101816.53;;;12.48;68.55
61537;BME280;48695;53.480;-6.300;2023-02-02T11:09:19;101808.59;;;12.53;68.44
61537;BME280;48695;53.480;-6.300;2023-02-02T11:11:49;101803.34;;;12.54;68.33
61537;BME280;48695;53.480;-6.300;2023-02-02T11:14:39;101791.97;;;12.55;68.37
61537;BME280;48695;53.480;-6.300;2023-02-02T11:17:20;101818.06;;;12.61;68.61
61537;BME280;48695;53.480;-6.300;2023-02-02T11:19:46;101806.75;;;12.59;68.72
61537;BME280;48695;53.480;-6.300;2023-02-02T11:24:54;101783.19;;;12.56;68.40
61537;BME280;48695;53.480;-6.300;2023-02-02T11:27:26;101804.78;;;12.75;67.66
61537;BME280;48695;53.480;-6.300;2023-02-02T11:29:54;101800.41;;;12.76;67.22
61537;BME280;48695;53.480;-6.300;2023-02-02T11:35:21;101803.84;;;12.81;67.51
61537;BME280;48695;53.480;-6.300;2023-02-02T11:38:11;101803.91;;;12.78;67.00
61537;BME280;48695;53.480;-6.300;2023-02-02T11:40:43;101800.31;;;12.82;66.65
61537;BME280;48695;53.480;-6.300;2023-02-02T11:43:18;101802.91;;;12.85;66.89
61537;BME280;48695;53.480;-6.300;2023-02-02T11:45:50;101800.31;;;12.83;67.03
61537;BME280;48695;53.480;-6.300;2023-02-02T11:48:20;101788.88;;;12.87;67.23
61537;BME280;48695;53.480;-6.300;2023-02-02T11:50:51;101793.19;;;12.91;66.84
61537;BME280;48695;53.480;-6.300;2023-02-02T11:53:34;101801.84;;;12.96;66.39
61537;BME280;48695;53.480;-6.300;2023-02-02T11:56:09;101800.97;;;12.96;65.90
61537;BME280;48695;53.480;-6.300;2023-02-02T11:58:47;101807.09;;;12.98;65.96
61537;BME280;48695;53.480;-6.300;2023-02-02T12:01:28;101796.53;;;13.01;65.96
61537;BME280;48695;53.480;-6.300;2023-02-02T12:03:59;101800.03;;;13.02;65.47
61537;BME280;48695;53.480;-6.300;2023-02-02T12:08:59;101793.00;;;13.05;65.68
61537;BME280;48695;53.480;-6.300;2023-02-02T12:27:51;101787.91;;;12.94;66.52
61537;BME280;48695;53.480;-6.300;2023-02-02T12:36:25;101751.41;;;12.81;67.93
61537;BME280;48695;53.480;-6.300;2023-02-02T12:49:54;101745.34;;;12.77;67.42
61537;BME280;48695;53.480;-6.300;2023-02-02T12:55:03;101754.78;;;12.89;67.24
61537;BME280;48695;53.480;-6.300;2023-02-02T13:06:01;101753.22;;;13.33;65.31
61537;BME280;48695;53.480;-6.300;2023-02-02T13:08:36;101742.56;;;13.43;65.33
61537;BME280;48695;53.480;-6.300;2023-02-02T13:11:13;101738.88;;;13.54;65.26
61537;BME280;48695;53.480;-6.300;2023-02-02T13:14:31;101734.28;;;13.63;64.54
61537;BME280;48695;53.480;-6.300;2023-02-02T13:17:05;101720.34;;;13.61;64.37
61537;BME280;48695;53.480;-6.300;2023-02-02T13:19:35;101728.75;;;13.79;63.72
61537;BME280;48695;53.480;-6.300;2023-02-02T13:22:06;101732.91;;;13.89;63.63
61537;BME280;48695;53.480;-6.300;2023-02-02T13:24:36;101722.41;;;13.89;63.56
61537;BME280;48695;53.480;-6.300;2023-02-02T13:27:05;101719.69;;;13.95;62.70
61537;BME280;48695;53.480;-6.300;2023-02-02T13:29:38;101727.47;;;13.99;63.05
61537;BME280;48695;53.480;-6.300;2023-02-02T13:32:09;101721.38;;;13.99;62.39
61537;BME280;48695;53.480;-6.300;2023-02-02T13:34:42;101717.97;;;13.94;62.44
61537;BME280;48695;53.480;-6.300;2023-02-02T13:39:47;101716.13;;;13.97;62.60
61537;BME280;48695;53.480;-6.300;2023-02-02T13:50:46;101712.81;;;13.89;62.85
61537;BME280;48695;53.480;-6.300;2023-02-02T14:01:23;101702.78;;;13.63;64.54
61537;BME280;48695;53.480;-6.300;2023-02-02T14:03:52;101714.97;;;13.67;64.46
61537;BME280;48695;53.480;-6.300;2023-02-02T14:06:23;101708.13;;;13.60;65.05
61537;BME280;48695;53.480;-6.300;2023-02-02T14:09:03;101711.69;;;13.56;64.85
61537;BME280;48695;53.480;-6.300;2023-02-02T14:11:38;101746.75;;;13.54;64.86
61537;BME280;48695;53.480;-6.300;2023-02-02T14:16:53;101687.47;;;13.42;64.01
61537;BME280;48695;53.480;-6.300;2023-02-02T14:34:46;101673.69;;;13.31;64.86
61537;BME280;48695;53.480;-6.300;2023-02-02T14:45:45;101712.13;;;13.32;65.87
61537;BME280;48695;53.480;-6.300;2023-02-02T14:48:31;101715.69;;;13.28;65.73
61537;BME280;48695;53.480;-6.300;2023-02-02T14:50:59;101678.44;;;13.09;66.20
61537;BME280;48695;53.480;-6.300;2023-02-02T14:53:35;101679.34;;;13.06;66.62
61537;BME280;48695;53.480;-6.300;2023-02-02T15:14:44;101674.56;;;12.79;66.48
61537;BME280;48695;53.480;-6.300;2023-02-02T15:19:39;101691.22;;;12.75;66.22
61537;BME280;48695;53.480;-6.300;2023-02-02T15:25:39;101724.41;;;12.76;65.47
61537;BME280;48695;53.480;-6.300;2023-02-02T15:30:41;101737.50;;;12.76;64.48
61537;BME280;48695;53.480;-6.300;2023-02-02T15:35:48;101725.34;;;12.73;64.75
61537;BME280;48695;53.480;-6.300;2023-02-02T15:38:15;101727.03;;;12.76;64.12
61537;BME280;48695;53.480;-6.300;2023-02-02T15:40:44;101706.19;;;12.66;63.85
61537;BME280;48695;53.480;-6.300;2023-02-02T15:43:10;101727.00;;;12.79;64.06
61537;BME280;48695;53.480;-6.300;2023-02-02T15:45:46;101730.44;;;12.81;64.00
61537;BME280;48695;53.480;-6.300;2023-02-02T15:48:18;101726.88;;;12.85;62.58
61537;BME280;48695;53.480;-6.300;2023-02-02T15:50:45;101707.97;;;12.64;62.90